Time;durP1;ratioP1;P1;durP2;ratioP2;P2;SDS_P1;SDS_P2;PMS_P1;PMS_P2;Temp;Humidity;BMP_temperature;BMP_pressure;BME280_temperature;BME280_humidity;BME280_pressure;Samples;Min_cycle;Max_cycle;Signal;HPM_P1;HPM_P2
2022/09/22 00:01:43;;;;;;;2.05;1.83;;;19.40;53.60;;;;;;5040945;28;20150;-81
2022/09/22 00:04:12;;;;;;;1.77;1.63;;;19.40;54.20;;;;;;4990476;28;20189;-82
2022/09/22 00:06:42;;;;;;;1.75;1.65;;;19.40;53.70;;;;;;4975161;28;20178;-81
2022/09/22 00:09:13;;;;;;;2.13;1.92;;;19.40;53.70;;;;;;4974987;28;20177;-82
2022/09/22 00:11:43;;;;;;;2.00;1.80;;;19.40;53.70;;;;;;4991231;28;20652;-81
2022/09/22 00:14:16;;;;;;;2.00;1.80;;;19.30;53.70;;;;;;4991110;28;20178;-81
2022/09/22 00:16:48;;;;;;;3.25;1.90;;;19.40;53.80;;;;;;4991933;28;20205;-81
2022/09/22 00:19:17;;;;;;;2.17;1.98;;;19.30;53.80;;;;;;4975177;28;20182;-81
2022/09/22 00:21:44;;;;;;;2.05;1.85;;;19.30;53.70;;;;;;5024520;28;20154;-81
2022/09/22 00:24:10;;;;;;;1.98;1.77;;;19.40;53.70;;;;;;5007490;28;20158;-83
2022/09/22 00:26:36;;;;;;;3.20;2.00;;;19.40;53.80;;;;;;5024662;28;20150;-82
2022/09/22 00:29:03;;;;;;;2.13;1.75;;;19.40;53.90;;;;;;5007992;28;20245;-82
2022/09/22 00:31:29;;;;;;;1.77;1.67;;;19.30;53.80;;;;;;5057767;28;20147;-82
2022/09/22 00:33:57;;;;;;;2.25;1.98;;;19.40;53.80;;;;;;5008105;28;20166;-81
2022/09/22 00:36:24;;;;;;;2.00;1.80;;;19.30;53.80;;;;;;5040545;28;20241;-82
2022/09/22 00:38:55;;;;;;;1.92;1.73;;;19.30;53.90;;;;;;5032706;28;20249;-82
2022/09/22 00:41:26;;;;;;;2.35;1.90;;;19.30;53.90;;;;;;5023886;28;20162;-81
2022/09/22 00:44:26;;;;;;;3.55;1.90;;;19.30;53.90;;;;;;5007725;28;20724;-81
2022/09/22 00:46:58;;;;;;;2.00;1.80;;;19.30;53.90;;;;;;5040494;28;20162;-81
2022/09/22 00:49:33;;;;;;;2.50;2.28;;;19.20;53.80;;;;;;5007579;28;20212;-81
2022/09/22 00:52:00;;;;;;;1.92;1.75;;;19.30;53.90;;;;;;5040803;28;20149;-81
2022/09/22 00:54:27;;;;;;;1.70;1.60;;;19.30;53.90;;;;;;5022283;28;20174;-81
2022/09/22 00:56:58;;;;;;;2.05;1.85;;;19.30;53.90;;;;;;4989935;28;20174;-80
2022/09/22 00:59:28;;;;;;;1.90;1.70;;;19.30;53.90;;;;;;5006733;28;20541;-81
2022/09/22 01:01:55;;;;;;;2.00;1.80;;;19.20;53.90;;;;;;5022576;28;20178;-82
2022/09/22 01:04:25;;;;;;;1.83;1.70;;;19.20;54.50;;;;;;5055597;28;20192;-82
2022/09/22 01:06:57;;;;;;;1.90;1.75;;;19.30;53.90;;;;;;5006154;28;20272;-83
2022/09/22 01:09:27;;;;;;;1.80;1.70;;;19.30;53.90;;;;;;5022070;28;20186;-82
2022/09/22 01:11:53;;;;;;;2.00;1.80;;;19.30;53.90;;;;;;4989956;28;20178;-81
2022/09/22 01:14:41;;;;;;;1.83;1.67;;;19.30;53.90;;;;;;5039932;28;20166;-81
2022/09/22 01:17:26;;;;;;;3.08;1.67;;;19.30;53.90;;;;;;5041988;28;20183;-82
2022/09/22 01:20:11;;;;;;;1.85;1.67;;;19.30;54.00;;;;;;5055809;28;20151;-81
2022/09/22 01:23:00;;;;;;;1.90;1.70;;;19.30;53.90;;;;;;5056063;28;20169;-82
2022/09/22 01:26:06;;;;;;;2.20;1.98;;;19.20;54.00;;;;;;5055799;28;20198;-81
2022/09/22 01:29:12;;;;;;;1.92;1.73;;;19.20;53.90;;;;;;5031106;28;20164;-82
2022/09/22 01:31:43;;;;;;;3.50;1.70;;;19.30;54.00;;;;;;5056679;28;20184;-81
2022/09/22 01:34:26;;;;;;;3.15;1.65;;;19.30;54.00;;;;;;5038532;28;20165;-82
2022/09/22 01:37:13;;;;;;;1.98;1.77;;;19.30;54.00;;;;;;5008302;28;20194;-83
2022/09/22 01:39:42;;;;;;;2.10;1.90;;;19.20;54.00;;;;;;5040397;28;20217;-82
2022/09/22 01:42:14;;;;;;;1.88;1.73;;;19.20;54.00;;;;;;5038957;28;20158;-82
2022/09/22 01:44:48;;;;;;;2.08;1.88;;;19.30;54.10;;;;;;5039403;28;20193;-83
2022/09/22 01:47:18;;;;;;;2.33;1.73;;;19.20;54.10;;;;;;5039533;28;20551;-82
2022/09/22 01:49:51;;;;;;;1.80;1.70;;;19.20;54.20;;;;;;5022641;28;20570;-82
2022/09/22 01:52:21;;;;;;;2.42;1.88;;;19.20;54.10;;;;;;5040067;28;20209;-81
2022/09/22 01:54:52;;;;;;;2.13;1.92;;;19.20;54.20;;;;;;5022476;28;20714;-81
2022/09/22 01:57:22;;;;;;;1.80;1.70;;;19.20;54.20;;;;;;5022562;28;20639;-82
2022/09/22 01:59:55;;;;;;;1.73;1.63;;;19.20;54.20;;;;;;5023269;28;20628;-81
2022/09/22 02:02:28;;;;;;;1.90;1.70;;;19.30;54.20;;;;;;4989145;28;20178;-82
2022/09/22 02:04:57;;;;;;;1.70;1.60;;;19.20;54.20;;;;;;5039865;28;20285;-82
2022/09/22 02:07:29;;;;;;;1.73;1.63;;;19.20;54.20;;;;;;5021780;28;20718;-81
2022/09/22 02:09:57;;;;;;;2.10;1.90;;;19.20;54.20;;;;;;5055064;28;20154;-82
2022/09/22 02:12:24;;;;;;;1.73;1.63;;;19.20;54.20;;;;;;5038829;28;20605;-81
2022/09/22 02:14:52;;;;;;;1.70;1.60;;;19.20;54.20;;;;;;5022062;28;20166;-83
2022/09/22 02:17:19;;;;;;;1.80;1.70;;;19.20;54.30;;;;;;5021828;28;20180;-82
2022/09/22 02:19:47;;;;;;;3.33;1.90;;;19.20;54.30;;;;;;5021788;28;20265;-82
2022/09/22 02:22:13;;;;;;;1.98;1.77;;;19.20;54.20;;;;;;5021841;28;20170;-82
2022/09/22 02:24:41;;;;;;;1.80;1.70;;;19.20;54.40;;;;;;5021427;28;20552;-81
2022/09/22 02:27:13;;;;;;;1.98;1.77;;;19.20;55.10;;;;;;5021628;28;20616;-82
2022/09/22 02:29:42;;;;;;;1.67;1.58;;;19.10;54.40;;;;;;5021693;28;20239;-82
2022/09/22 02:32:10;;;;;;;1.77;1.67;;;19.20;54.50;;;;;;5021729;28;20170;-82
2022/09/22 02:34:37;;;;;;;1.73;1.60;;;19.20;54.30;;;;;;5038736;28;20159;-82
2022/09/22 02:37:12;;;;;;;1.83;1.50;;;19.10;54.30;;;;;;5054206;28;20260;-82
2022/09/22 02:39:46;;;;;;;2.28;1.83;;;19.10;54.50;;;;;;5021606;28;20225;-81
2022/09/22 02:42:29;;;;;;;2.58;1.50;;;19.20;54.40;;;;;;5021601;28;20548;-82
2022/09/22 02:45:09;;;;;;;1.70;1.60;;;19.20;54.30;;;;;;5021837;28;20205;-82
2022/09/22 02:47:40;;;;;;;1.90;1.70;;;19.20;54.50;;;;;;5054600;28;20150;-82
2022/09/22 02:50:08;;;;;;;1.77;1.67;;;19.10;54.50;;;;;;5021661;28;20165;-81
2022/09/22 02:52:36;;;;;;;1.92;1.73;;;19.10;54.50;;;;;;5038105;28;20162;-82
2022/09/22 02:55:06;;;;;;;2.05;1.70;;;19.10;54.50;;;;;;5021647;28;20505;-81
2022/09/22 02:57:35;;;;;;;1.73;1.63;;;19.10;54.50;;;;;;5004362;28;20182;-82
2022/09/22 03:00:05;;;;;;;2.22;1.67;;;19.20;54.60;;;;;;5020714;28;20252;-82
2022/09/22 03:02:37;;;;;;;1.80;1.60;;;19.10;54.60;;;;;;5004426;28;20186;-82
2022/09/22 03:05:09;;;;;;;1.70;1.60;;;19.10;54.60;;;;;;5020588;28;20699;-81
2022/09/22 03:07:37;;;;;;;2.45;1.67;;;19.10;54.60;;;;;;4987188;28;20178;-82
2022/09/22 03:10:03;;;;;;;2.10;1.80;;;19.10;54.70;;;;;;5021460;28;20173;-81
2022/09/22 03:12:32;;;;;;;1.70;1.58;;;19.10;54.60;;;;;;5037701;28;20177;-82
2022/09/22 03:14:57;;;;;;;2.10;1.90;;;19.10;54.50;;;;;;5020965;28;20219;-80
2022/09/22 03:17:24;;;;;;;1.90;1.70;;;19.10;54.70;;;;;;5037388;28;20158;-81
2022/09/22 03:19:50;;;;;;;2.03;1.60;;;19.10;54.60;;;;;;5021134;28;20184;-83
2022/09/22 03:22:15;;;;;;;1.65;1.45;;;19.10;54.60;;;;;;5020992;28;20178;-81
2022/09/22 03:24:42;;;;;;;2.08;1.80;;;19.10;54.60;;;;;;5021178;28;20232;-81
2022/09/22 03:27:09;;;;;;;2.10;1.70;;;19.10;54.60;;;;;;5037220;28;20166;-81
2022/09/22 03:29:34;;;;;;;2.10;1.90;;;19.10;54.60;;;;;;5037827;28;20151;-82
2022/09/22 03:32:00;;;;;;;2.13;1.77;;;19.10;54.70;;;;;;5037630;28;20157;-81
2022/09/22 03:34:28;;;;;;;1.55;1.42;;;19.10;54.70;;;;;;5037027;28;20212;-82
2022/09/22 03:36:55;;;;;;;1.70;1.52;;;19.10;54.60;;;;;;5036945;28;20161;-85
2022/09/22 03:39:21;;;;;;;1.90;1.70;;;19.10;54.80;;;;;;5037091;28;20220;-82
2022/09/22 03:41:52;;;;;;;1.77;1.60;;;19.00;54.70;;;;;;5020767;28;20166;-82
2022/09/22 03:44:19;;;;;;;2.25;1.73;;;19.10;54.60;;;;;;4987317;28;20649;-81
2022/09/22 03:46:47;;;;;;;2.25;1.70;;;19.10;54.80;;;;;;5037241;28;20193;-81
2022/09/22 03:49:16;;;;;;;1.65;1.55;;;19.10;54.90;;;;;;5003794;28;20560;-82
2022/09/22 03:51:44;;;;;;;1.65;1.55;;;19.10;54.80;;;;;;4987811;28;20214;-81
2022/09/22 03:54:13;;;;;;;1.85;1.50;;;19.00;54.80;;;;;;5020064;28;20224;-81
2022/09/22 03:56:41;;;;;;;2.20;2.00;;;19.10;54.80;;;;;;5020183;28;20186;-82
2022/09/22 03:59:09;;;;;;;1.85;1.40;;;19.00;54.80;;;;;;5003699;28;20182;-82
2022/09/22 04:01:35;;;;;;;2.08;1.70;;;19.00;54.80;;;;;;5037319;28;20162;-83
2022/09/22 04:04:03;;;;;;;1.70;1.60;;;19.00;54.80;;;;;;5037105;28;20169;-82
2022/09/22 04:06:28;;;;;;;3.83;1.65;;;19.10;54.90;;;;;;5036822;28;20533;-81
2022/09/22 04:08:54;;;;;;;2.83;1.60;;;19.00;54.80;;;;;;5053300;28;20169;-81
2022/09/22 04:11:20;;;;;;;1.88;1.52;;;19.10;54.90;;;;;;5053747;28;20162;-81
2022/09/22 04:13:48;;;;;;;1.45;1.35;;;19.00;54.90;;;;;;5020182;28;20591;-82
2022/09/22 04:16:16;;;;;;;1.70;1.60;;;19.00;54.90;;;;;;5003012;28;20182;-82
2022/09/22 04:18:45;;;;;;;1.70;1.60;;;19.00;54.80;;;;;;5002911;28;20181;-82
2022/09/22 04:21:13;;;;;;;1.42;1.33;;;19.00;54.90;;;;;;5003108;28;20272;-81
2022/09/22 04:23:40;;;;;;;1.63;1.45;;;19.00;55.00;;;;;;5003060;28;20178;-82
2022/09/22 04:26:07;;;;;;;1.83;1.50;;;19.00;54.90;;;;;;4987054;28;20214;-81
2022/09/22 04:28:35;;;;;;;1.80;1.70;;;19.00;54.90;;;;;;5002825;28;20236;-81
2022/09/22 04:31:02;;;;;;;1.95;1.77;;;19.10;55.00;;;;;;5003116;28;20225;-81
2022/09/22 04:33:32;;;;;;;2.00;1.50;;;19.00;55.00;;;;;;5002551;28;20182;-82
2022/09/22 04:36:05;;;;;;;1.80;1.50;;;19.00;55.00;;;;;;5019173;28;20251;-82
2022/09/22 04:38:30;;;;;;;2.20;1.70;;;19.00;54.80;;;;;;5019734;28;20257;-82
2022/09/22 04:40:57;;;;;;;1.90;1.67;;;19.00;54.80;;;;;;5056865;28;20166;-81
2022/09/22 04:43:24;;;;;;;1.75;1.60;;;19.00;55.00;;;;;;5006257;28;20573;-83
2022/09/22 04:45:52;;;;;;;1.90;1.70;;;19.00;55.00;;;;;;5006792;28;20216;-81
2022/09/22 04:48:19;;;;;;;1.65;1.55;;;19.10;55.10;;;;;;5006130;28;20189;-82
2022/09/22 04:50:47;;;;;;;1.70;1.52;;;19.00;55.10;;;;;;5006177;28;20174;-81
2022/09/22 04:53:14;;;;;;;1.85;1.58;;;19.00;55.20;;;;;;5023210;28;20259;-81
2022/09/22 04:55:40;;;;;;;2.38;1.75;;;19.00;55.30;;;;;;5006110;28;20188;-82
2022/09/22 04:58:06;;;;;;;2.08;1.30;;;18.90;55.00;;;;;;5023114;28;20174;-81
2022/09/22 05:00:32;;;;;;;1.50;1.40;;;19.00;54.90;;;;;;5056538;28;20162;-82
2022/09/22 05:02:59;;;;;;;2.05;1.60;;;19.00;55.10;;;;;;5039786;28;20177;-81
2022/09/22 05:05:25;;;;;;;1.73;1.40;;;19.00;55.10;;;;;;5039563;28;20205;-83
2022/09/22 05:07:53;;;;;;;1.60;1.50;;;19.00;54.70;;;;;;5023559;28;20162;-82
2022/09/22 05:10:20;;;;;;;1.20;1.10;;;19.00;54.40;;;;;;5024047;28;20196;-82
2022/09/22 05:12:47;;;;;;;1.50;1.40;;;19.00;54.00;;;;;;5039424;28;20178;-81
2022/09/22 05:15:13;;;;;;;1.30;1.20;;;19.00;54.00;;;;;;5022947;28;20174;-82
2022/09/22 05:17:48;;;;;;;1.20;1.10;;;19.00;53.70;;;;;;5039877;28;20208;-82
2022/09/22 05:20:14;;;;;;;1.02;0.98;;;19.00;53.60;;;;;;5023016;28;20166;-82
2022/09/22 05:22:40;;;;;;;1.20;1.10;;;19.10;53.40;;;;;;5022560;28;20165;-82
2022/09/22 05:25:10;;;;;;;1.40;1.30;;;19.00;53.20;;;;;;5039384;28;20224;-83
2022/09/22 05:27:41;;;;;;;1.20;1.10;;;19.10;53.10;;;;;;5005108;28;20189;-81
2022/09/22 05:30:07;;;;;;;1.13;1.05;;;19.00;53.10;;;;;;5036758;28;20613;-81
2022/09/22 05:32:33;;;;;;;1.30;1.20;;;19.00;53.20;;;;;;5003773;28;20178;-83
2022/09/22 05:34:59;;;;;;;1.20;1.10;;;19.00;53.00;;;;;;5003694;28;20540;-82
2022/09/22 05:37:27;;;;;;;1.10;1.00;;;19.10;52.90;;;;;;5003833;28;20716;-81
2022/09/22 05:39:53;;;;;;;1.00;1.00;;;19.10;52.90;;;;;;4985478;28;20313;-83
2022/09/22 05:42:20;;;;;;;1.20;1.10;;;19.10;53.50;;;;;;5034931;28;20186;-80
2022/09/22 05:44:47;;;;;;;1.35;1.10;;;19.10;52.90;;;;;;5034703;28;20194;-81
2022/09/22 05:47:14;;;;;;;1.73;1.00;;;19.10;52.90;;;;;;5018343;28;20202;-82
2022/09/22 05:49:39;;;;;;;1.20;1.10;;;19.10;52.80;;;;;;5001154;28;20202;-80
2022/09/22 05:52:08;;;;;;;1.10;1.00;;;19.10;52.90;;;;;;5036667;28;20617;-82
2022/09/22 05:54:36;;;;;;;1.20;1.10;;;19.10;52.80;;;;;;5035804;28;20179;-83
2022/09/22 05:57:02;;;;;;;0.85;0.85;;;19.10;53.00;;;;;;5019104;28;20163;-82
2022/09/22 05:59:27;;;;;;;1.10;1.00;;;19.10;52.90;;;;;;5036625;28;20163;-82
2022/09/22 06:01:54;;;;;;;0.88;0.88;;;19.10;53.00;;;;;;5019084;28;20151;-81
2022/09/22 06:04:20;;;;;;;1.10;1.00;;;19.10;52.90;;;;;;5018751;28;20635;-83
2022/09/22 06:06:46;;;;;;;1.20;1.10;;;19.10;52.90;;;;;;5018503;28;20198;-81
2022/09/22 06:09:12;;;;;;;1.02;0.93;;;19.10;53.00;;;;;;5019028;28;20676;-81
2022/09/22 06:11:37;;;;;;;1.20;1.10;;;19.10;53.10;;;;;;5018603;28;20166;-81
2022/09/22 06:14:09;;;;;;;0.90;0.90;;;19.10;53.10;;;;;;5002696;28;20204;-81
2022/09/22 06:16:39;;;;;;;1.02;0.93;;;19.20;53.90;;;;;;4985982;28;20186;-82
2022/09/22 06:19:08;;;;;;;1.10;1.00;;;19.10;53.20;;;;;;5002168;28;20602;-83
2022/09/22 06:21:37;;;;;;;1.20;1.10;;;19.10;53.30;;;;;;5001894;28;20217;-82
2022/09/22 06:24:05;;;;;;;1.10;1.00;;;19.10;53.40;;;;;;4985551;28;20179;-83
2022/09/22 06:26:34;;;;;;;1.10;1.00;;;19.20;53.40;;;;;;5001449;28;20268;-81
2022/09/22 06:29:02;;;;;;;0.88;0.88;;;19.20;53.40;;;;;;5001834;28;20229;-83
2022/09/22 06:31:30;;;;;;;1.33;1.17;;;19.20;53.50;;;;;;5002127;28;20221;-81
2022/09/22 06:33:58;;;;;;;1.17;1.08;;;19.20;53.50;;;;;;5002056;28;20178;-83
2022/09/22 06:36:30;;;;;;;0.82;0.82;;;19.20;53.50;;;;;;4985756;28;20703;-82
2022/09/22 06:38:57;;;;;;;1.10;1.00;;;19.20;53.60;;;;;;5019439;28;20682;-83
2022/09/22 06:41:27;;;;;;;1.10;1.00;;;19.30;53.70;;;;;;5037571;28;20170;-81
2022/09/22 06:43:55;;;;;;;0.85;0.85;;;19.20;53.80;;;;;;5019216;28;20645;-81
2022/09/22 06:46:25;;;;;;;0.80;0.80;;;19.20;53.80;;;;;;5002884;28;20681;-81
2022/09/22 06:48:56;;;;;;;1.13;1.02;;;19.30;53.90;;;;;;4986970;28;20258;-81
2022/09/22 06:51:26;;;;;;;1.10;1.00;;;19.20;53.80;;;;;;5019698;28;20206;-82
2022/09/22 06:53:56;;;;;;;0.90;0.90;;;19.30;53.90;;;;;;5002480;28;20334;-81
2022/09/22 06:56:26;;;;;;;1.20;1.00;;;19.30;53.80;;;;;;5002219;28;20668;-83
2022/09/22 06:58:55;;;;;;;1.20;0.80;;;19.30;53.70;;;;;;5002730;28;20638;-83
2022/09/22 07:01:22;;;;;;;1.10;1.00;;;19.40;53.70;;;;;;4998872;28;20190;-83
2022/09/22 07:03:53;;;;;;;1.10;1.00;;;19.30;53.80;;;;;;4999254;28;20194;-83
2022/09/22 07:06:21;;;;;;;0.82;0.82;;;19.40;53.70;;;;;;4999444;28;20211;-80
2022/09/22 07:08:48;;;;;;;0.85;0.80;;;19.40;53.70;;;;;;5015398;28;20244;-82
2022/09/22 07:11:16;;;;;;;0.82;0.82;;;19.30;53.70;;;;;;4982665;28;20182;-80
2022/09/22 07:13:44;;;;;;;0.75;0.75;;;19.40;53.70;;;;;;4999004;28;20183;-82
2022/09/22 07:16:15;;;;;;;0.90;0.90;;;19.50;53.70;;;;;;4999048;28;20190;-81
2022/09/22 07:18:43;;;;;;;0.80;0.80;;;19.40;53.70;;;;;;4999833;28;20672;-82
2022/09/22 07:21:15;;;;;;;1.63;0.60;;;19.50;53.80;;;;;;4983463;28;20638;-82
2022/09/22 07:23:45;;;;;;;2.22;0.93;;;19.50;53.60;;;;;;5015565;28;20190;-81
2022/09/22 07:26:14;;;;;;;1.10;1.00;;;19.50;53.60;;;;;;4999213;28;20221;-82
2022/09/22 07:28:41;;;;;;;0.80;0.80;;;19.50;53.60;;;;;;4999113;28;20197;-81
2022/09/22 07:31:08;;;;;;;0.90;0.90;;;19.50;53.60;;;;;;5015530;28;20533;-83
2022/09/22 07:33:35;;;;;;;0.70;0.70;;;19.50;53.70;;;;;;5016304;28;20203;-80
2022/09/22 07:36:08;;;;;;;0.98;0.90;;;19.50;53.60;;;;;;5016371;28;20174;-81
2022/09/22 07:38:35;;;;;;;1.92;1.00;;;19.60;53.60;;;;;;5000270;28;20218;-82
2022/09/22 07:41:04;;;;;;;1.23;0.93;;;19.50;53.50;;;;;;5016277;28;20281;-81
2022/09/22 07:43:30;;;;;;;0.90;0.90;;;19.50;53.50;;;;;;5015629;28;20158;-81
2022/09/22 07:45:56;;;;;;;1.02;0.80;;;19.50;53.50;;;;;;5032115;28;20182;-82
2022/09/22 07:51:04;;;;;;;0.80;0.80;;;19.50;53.60;;;;;;5017648;28;20699;-81
2022/09/22 07:53:30;;;;;;;0.70;0.70;;;19.60;53.50;;;;;;5015725;28;20565;-83
2022/09/22 07:56:03;;;;;;;0.90;0.90;;;19.60;53.50;;;;;;5000241;28;20183;-83
2022/09/22 07:58:29;;;;;;;0.95;0.90;;;19.50;53.50;;;;;;5016230;28;20155;-81
2022/09/22 08:00:55;;;;;;;1.10;0.90;;;19.60;53.70;;;;;;4999674;28;20174;-82
2022/09/22 08:03:21;;;;;;;1.00;0.90;;;19.50;53.70;;;;;;5017613;28;20166;-82
2022/09/22 08:05:51;;;;;;;0.68;0.68;;;19.50;53.90;;;;;;5031418;28;20186;-81
2022/09/22 08:08:17;;;;;;;0.80;0.80;;;19.50;54.10;;;;;;5031991;28;20175;-82
2022/09/22 08:10:43;;;;;;;0.90;0.90;;;19.50;54.10;;;;;;5032743;28;20162;-83
2022/09/22 08:13:28;;;;;;;1.23;1.00;;;19.50;54.10;;;;;;5032097;28;20159;-81
2022/09/22 08:16:16;;;;;;;;;;;;;;;;;;;;;
2022/09/22 08:22:33;;;;;;;0.95;0.77;;;19.50;53.90;;;;;;4976251;28;20199;-82
2022/09/22 08:24:59;;;;;;;0.75;0.75;;;19.60;53.80;;;;;;4887772;29;20752;-83
2022/09/22 08:27:26;;;;;;;1.15;1.05;;;19.60;53.70;;;;;;4903027;29;20266;-82
2022/09/22 08:29:52;;;;;;;0.80;0.75;;;19.60;53.80;;;;;;4902953;29;20182;-82
2022/09/22 08:32:18;;;;;;;0.75;0.75;;;19.60;53.90;;;;;;4902946;29;20254;-81
2022/09/22 08:34:44;;;;;;;0.70;0.70;;;19.60;53.90;;;;;;4871923;29;20190;-80
2022/09/22 08:37:12;;;;;;;0.80;0.80;;;19.60;53.90;;;;;;4887108;29;20190;-82
2022/09/22 08:39:38;;;;;;;1.52;0.70;;;19.60;53.80;;;;;;4868368;29;20298;-82
2022/09/22 08:42:12;;;;;;;0.85;0.70;;;19.60;53.80;;;;;;4884257;29;20180;-81
2022/09/22 08:44:56;;;;;;;0.70;0.70;;;19.60;53.90;;;;;;4884251;29;20191;-81
2022/09/22 08:53:01;;;;;;;0.68;0.68;;;19.60;54.10;;;;;;4961269;28;20154;-81
2022/09/22 08:55:29;;;;;;;1.10;0.70;;;19.60;54.10;;;;;;4976986;28;20183;-81
2022/09/22 08:58:23;;;;;;;3.13;0.70;;;19.60;54.20;;;;;;5019791;28;20598;-83
2022/09/22 09:00:55;;;;;;;0.77;0.70;;;19.60;54.30;;;;;;5020305;28;20225;-81
2022/09/22 09:03:51;;;;;;;0.95;0.80;;;19.60;54.40;;;;;;5021710;28;20155;-81
2022/09/22 09:06:29;;;;;;;0.60;0.60;;;19.60;54.60;;;;;;5025827;28;20209;-82
2022/09/22 09:09:04;;;;;;;0.85;0.70;;;19.60;54.80;;;;;;5029986;28;20201;-81
2022/09/22 09:12:00;;;;;;;1.00;0.90;;;19.70;54.70;;;;;;5028863;28;20184;-81
2022/09/22 09:15:02;;;;;;;3.63;0.82;;;19.60;54.80;;;;;;5003675;28;20178;-82
2022/09/22 09:17:32;;;;;;;0.80;0.65;;;19.60;54.80;;;;;;5027471;28;20162;-82
2022/09/22 09:20:26;;;;;;;0.95;0.80;;;19.60;55.00;;;;;;5010231;28;20202;-82
2022/09/22 09:23:16;;;;;;;0.85;0.80;;;19.60;55.10;;;;;;4980678;28;20262;-84
2022/09/22 09:25:53;;;;;;;0.68;0.68;;;19.60;55.10;;;;;;4944118;28;20287;-84
2022/09/22 09:28:42;;;;;;;0.70;0.70;;;19.60;55.10;;;;;;4946493;29;20186;-83
2022/09/22 09:31:20;;;;;;;0.70;0.70;;;19.60;55.20;;;;;;4945038;29;20274;-83
2022/09/22 09:34:01;;;;;;;0.80;0.77;;;19.60;55.20;;;;;;4917131;29;20181;-84
2022/09/22 09:36:42;;;;;;;1.92;1.00;;;19.70;55.20;;;;;;4872909;29;20188;-84
2022/09/22 09:39:24;;;;;;;;;;;;;;;;;;;;;
2022/09/22 09:41:55;;;;;;;1.02;0.93;;;19.70;55.20;;;;;;4833026;29;20264;-82
2022/09/22 09:44:48;;;;;;;;;;;;;;;;;;;;;
2022/09/22 09:47:40;;;;;;;0.90;0.90;;;19.70;55.30;;;;;;4834337;29;20265;-81
2022/09/22 09:50:30;;;;;;;0.85;0.85;;;19.70;55.40;;;;;;4855686;29;20268;-82
2022/09/22 09:53:16;;;;;;;1.25;1.10;;;19.60;55.50;;;;;;4905717;29;20197;-81
2022/09/22 09:57:01;;;;;;;1.00;0.90;;;19.70;55.40;;;;;;4934965;29;20196;-83
2022/09/22 10:09:42;;;;;;;0.98;0.95;;;19.60;55.40;;;;;;4939254;29;20243;-86
2022/09/22 10:19:21;;;;;;;0.93;0.93;;;19.70;55.30;;;;;;4987856;28;20203;-83
2022/09/22 10:22:14;;;;;;;1.60;1.15;;;19.70;55.30;;;;;;4935532;28;20180;-83
2022/09/22 10:25:30;;;;;;;1.27;1.17;;;19.80;55.20;;;;;;4966980;28;20212;-88
2022/09/22 10:28:03;;;;;;;1.17;1.08;;;19.70;55.10;;;;;;4942260;28;20181;-83
2022/09/22 10:33:25;;;;;;;1.10;1.08;;;19.70;54.80;;;;;;4929037;29;20249;-85
2022/09/22 10:36:13;;;;;;;1.15;1.05;;;19.80;54.90;;;;;;4872660;29;20284;-84
2022/09/22 10:38:44;;;;;;;2.05;1.08;;;19.80;54.90;;;;;;4867912;29;20638;-83
2022/09/22 10:45:49;;;;;;;;;;;;;;;;;;;;;
2022/09/22 10:49:02;;;;;;;0.98;0.98;;;19.80;54.70;;;;;;4808861;29;20915;-88
2022/09/22 11:02:43;;;;;;;;;;;;;;;;;;;;;
2022/09/22 11:12:15;;;;;;;1.15;1.05;;;19.80;54.40;;;;;;4846913;29;20677;-85
2022/09/22 11:15:12;;;;;;;1.10;1.10;;;19.80;54.40;;;;;;4842924;29;20256;-84
2022/09/22 11:18:24;;;;;;;1.10;1.00;;;19.80;54.40;;;;;;4794842;30;20320;-83
2022/09/22 11:21:26;;;;;;;1.20;1.10;;;19.80;54.40;;;;;;4805818;29;20193;-84
2022/09/22 11:24:15;;;;;;;;;;;;;;;;;;;;;
2022/09/22 11:30:57;;;;;;;1.42;1.20;;;19.80;54.40;;;;;;4876324;29;20279;-84
2022/09/22 11:45:27;;;;;;;1.50;1.20;;;19.90;54.00;;;;;;4911846;29;20303;-85
2022/09/22 11:49:08;;;;;;;1.20;1.10;;;19.80;53.80;;;;;;4915138;29;20206;-84
2022/09/22 12:06:06;;;;;;;1.48;1.10;;;20.00;53.30;;;;;;4872840;29;20183;-81
2022/09/22 12:09:06;;;;;;;1.50;1.20;;;19.90;53.20;;;;;;4796909;29;20182;-82
2022/09/22 12:11:49;;;;;;;1.27;1.17;;;20.00;53.10;;;;;;4794316;29;20261;-81
2022/09/22 12:18:12;;;;;;;1.13;1.08;;;20.00;52.80;;;;;;4812710;29;20196;-81
2022/09/22 12:21:18;;;;;;;1.17;1.08;;;20.00;53.10;;;;;;4828323;29;20240;-84
2022/09/22 12:24:02;;;;;;;1.10;0.90;;;20.00;52.90;;;;;;4911678;29;20202;-82
2022/09/22 12:26:32;;;;;;;2.17;0.98;;;20.00;52.90;;;;;;4899927;28;20214;-82
2022/09/22 12:29:26;;;;;;;0.80;0.80;;;20.10;53.00;;;;;;4959382;28;20180;-83
2022/09/22 12:31:56;;;;;;;1.00;1.00;;;20.10;53.20;;;;;;4992552;28;20193;-83
2022/09/22 12:34:26;;;;;;;1.00;1.00;;;20.00;53.10;;;;;;4981818;28;20183;-84
2022/09/22 12:37:07;;;;;;;1.10;1.00;;;20.00;53.10;;;;;;4996988;28;20171;-84
2022/09/22 12:39:38;;;;;;;1.00;1.00;;;20.00;53.10;;;;;;4967242;28;20218;-82
2022/09/22 12:42:17;;;;;;;1.10;1.00;;;20.00;53.20;;;;;;5006635;28;20253;-82
2022/09/22 12:44:50;;;;;;;1.40;1.23;;;20.10;53.20;;;;;;4963375;28;20186;-83
2022/09/22 12:47:18;;;;;;;1.10;0.95;;;20.10;52.90;;;;;;4931035;28;20222;-83
2022/09/22 12:49:53;;;;;;;1.00;1.00;;;20.10;52.80;;;;;;4993150;28;20184;-82
2022/09/22 12:52:56;;;;;;;2.60;1.08;;;20.10;52.80;;;;;;4993605;28;20163;-82
2022/09/22 12:55:37;;;;;;;2.15;1.10;;;20.10;52.80;;;;;;4980481;28;20183;-83
2022/09/22 12:58:37;;;;;;;0.80;0.80;;;20.00;52.90;;;;;;5011118;28;20205;-82
2022/09/22 13:01:26;;;;;;;1.08;0.77;;;20.00;52.80;;;;;;5016323;28;20630;-83
2022/09/22 13:03:54;;;;;;;1.02;1.00;;;20.00;52.80;;;;;;5009354;28;20226;-82
2022/09/22 13:07:12;;;;;;;1.17;1.08;;;20.00;52.70;;;;;;4990155;28;20191;-83
2022/09/22 13:09:37;;;;;;;0.70;0.70;;;20.00;52.80;;;;;;4946726;29;20193;-83
2022/09/22 13:12:20;;;;;;;1.17;1.08;;;20.00;52.50;;;;;;4983990;28;20192;-84
2022/09/22 13:15:11;;;;;;;0.88;0.88;;;20.00;52.80;;;;;;4977774;28;20246;-83
2022/09/22 13:17:40;;;;;;;1.00;0.80;;;20.00;52.80;;;;;;5015941;28;20271;-83
2022/09/22 13:20:30;;;;;;;0.95;0.85;;;19.90;52.80;;;;;;5028620;28;20147;-84
2022/09/22 13:23:06;;;;;;;0.93;0.90;;;19.90;52.80;;;;;;4998014;28;20179;-83
2022/09/22 13:25:50;;;;;;;1.15;0.90;;;20.00;52.80;;;;;;5028003;28;20307;-85
2022/09/22 13:28:24;;;;;;;0.85;0.70;;;20.00;52.80;;;;;;5030097;28;20590;-84
2022/09/22 13:31:03;;;;;;;1.17;1.00;;;20.00;52.60;;;;;;5012699;28;20272;-84
2022/09/22 13:36:52;;;;;;;0.80;0.80;;;20.00;52.60;;;;;;4988507;28;20243;-82
2022/09/22 13:39:26;;;;;;;1.23;1.00;;;20.00;52.60;;;;;;4963687;28;20239;-82
2022/09/22 13:42:35;;;;;;;0.93;0.90;;;20.00;52.70;;;;;;4957389;28;20180;-83
2022/09/22 13:45:37;;;;;;;;;;;;;;;;;;;;;
2022/09/22 13:49:03;;;;;;;0.90;0.90;;;20.00;52.70;;;;;;4892266;29;20731;-84
2022/09/22 13:51:49;;;;;;;1.20;1.00;;;20.00;52.70;;;;;;4852931;29;20193;-84
2022/09/22 13:54:29;;;;;;;0.90;0.90;;;20.00;52.80;;;;;;4820112;29;20195;-83
2022/09/22 13:57:33;;;;;;;1.00;0.90;;;20.10;52.60;;;;;;4792377;30;20195;-84
2022/09/22 14:00:30;;;;;;;0.93;0.93;;;20.10;52.50;;;;;;4769885;30;20195;-85
2022/09/22 14:03:57;;;;;;;2.28;0.90;;;20.10;52.40;;;;;;4780631;30;20203;-85
2022/09/22 14:06:30;;;;;;;2.53;0.80;;;20.10;52.50;;;;;;4759908;30;20220;-82
2022/09/22 14:42:07;;;;;;;4.28;0.88;;;20.20;51.10;;;;;;4946462;29;20265;-83
2022/09/22 14:45:04;;;;;;;4.25;1.15;;;20.20;51.20;;;;;;5011404;28;20203;-85
2022/09/22 14:47:39;;;;;;;1.20;1.00;;;20.20;51.30;;;;;;4987881;28;20195;-82
2022/09/22 14:50:37;;;;;;;2.53;0.82;;;20.10;51.30;;;;;;4974258;28;20175;-84
2022/09/22 14:53:48;;;;;;;3.72;0.98;;;20.10;51.40;;;;;;4990137;28;20176;-85
2022/09/22 14:56:27;;;;;;;4.03;0.90;;;20.10;51.40;;;;;;4953592;29;20192;-82
2022/09/22 15:02:30;;;;;;;3.85;0.88;;;20.10;52.20;;;;;;4946425;29;20189;-83
2022/09/22 15:04:53;;;;;;;5.97;1.17;;;20.00;51.50;;;;;;4926258;29;20186;-83
2022/09/22 15:07:34;;;;;;;5.32;1.35;;;20.00;51.60;;;;;;4933877;29;20197;-84
2022/09/22 15:14:22;;;;;;;5.95;1.27;;;20.00;51.60;;;;;;4874404;29;20213;-83
2022/09/22 15:24:50;;;;;;;1.55;1.02;;;20.00;51.60;;;;;;4837873;29;20588;-83
2022/09/22 15:27:19;;;;;;;2.08;1.00;;;20.10;51.60;;;;;;4800608;29;21123;-82
2022/09/22 15:30:01;;;;;;;2.45;1.00;;;20.10;51.50;;;;;;4768195;30;20192;-84
2022/09/22 15:33:02;;;;;;;4.00;1.05;;;20.10;51.50;;;;;;4783650;30;20188;-85
2022/09/22 15:35:57;;;;;;;2.10;1.08;;;20.00;51.50;;;;;;4803131;29;20276;-84
2022/09/22 15:38:58;;;;;;;1.55;0.85;;;20.00;51.50;;;;;;4804423;29;20186;-82
2022/09/22 15:41:43;;;;;;;3.33;0.77;;;20.00;51.40;;;;;;4811773;29;20654;-82
2022/09/22 15:44:38;;;;;;;2.15;0.90;;;20.00;51.40;;;;;;4776424;30;20193;-83
2022/09/22 15:47:21;;;;;;;2.28;0.80;;;20.00;51.40;;;;;;4799404;30;20231;-82
2022/09/22 15:49:58;;;;;;;;;;;;;;;;;;;;;
2022/09/22 15:52:36;;;;;;;0.93;0.82;;;20.00;51.30;;;;;;4779772;30;20252;-87
2022/09/22 15:55:57;;;;;;;1.40;0.90;;;20.00;51.30;;;;;;4761230;30;20253;-86
2022/09/22 15:59:01;;;;;;;;;;;;;;;;;;;;;
2022/09/22 16:01:32;;;;;;;0.90;0.90;;;20.00;51.20;;;;;;4760815;30;20220;-87